createdAt,value
2017-12-23T00:01:26.732Z,6.20
2017-12-23T00:03:55.061Z,6.30
2017-12-23T00:06:23.013Z,6.20
2017-12-23T00:08:50.571Z,6.20
2017-12-23T00:11:18.472Z,6.20
2017-12-23T00:13:46.052Z,6.20
2017-12-23T00:16:13.964Z,6.20
2017-12-23T00:18:41.504Z,6.10
2017-12-23T00:21:09.037Z,6.10
2017-12-23T00:23:37.375Z,6.10
2017-12-23T00:26:05.279Z,6.20
2017-12-23T00:28:33.192Z,6.20
2017-12-23T00:31:00.688Z,6.20
2017-12-23T00:33:28.214Z,6.30
2017-12-23T00:35:55.725Z,6.20
2017-12-23T00:38:23.227Z,6.20
2017-12-23T00:40:51.532Z,6.20
2017-12-23T00:43:19.443Z,6.10
2017-12-23T00:45:47.383Z,6.10
2017-12-23T00:48:14.870Z,6.20
2017-12-23T00:50:42.385Z,6.30
2017-12-23T00:53:09.882Z,6.30
2017-12-23T00:55:37.423Z,6.20
2017-12-23T00:58:04.914Z,6.20
2017-12-23T01:00:32.442Z,6.20
2017-12-23T01:02:59.934Z,6.20
2017-12-23T01:05:27.870Z,6.20
2017-12-23T01:07:55.430Z,6.20
2017-12-23T01:10:22.933Z,6.20
2017-12-23T01:12:50.446Z,6.20
2017-12-23T01:15:17.939Z,6.20
2017-12-23T01:17:45.880Z,6.20
2017-12-23T01:20:13.408Z,6.20
2017-12-23T01:22:40.935Z,6.20
2017-12-23T01:25:08.457Z,6.20
2017-12-23T01:27:36.027Z,6.20
2017-12-23T01:30:03.926Z,6.10
2017-12-23T01:32:31.860Z,6.10
2017-12-23T01:34:59.379Z,6.10
2017-12-23T01:37:27.327Z,6.10
2017-12-23T01:39:55.220Z,6.20
2017-12-23T01:42:22.713Z,6.20
2017-12-23T01:44:50.239Z,6.20
2017-12-23T01:47:17.735Z,6.10
2017-12-23T01:49:45.669Z,6.10
2017-12-23T01:52:13.833Z,6.10
2017-12-23T01:54:41.374Z,6.20
2017-12-23T01:57:10.023Z,6.20
2017-12-23T01:59:37.955Z,6.20
2017-12-23T02:02:05.862Z,6.30
2017-12-23T02:04:33.387Z,6.30
2017-12-23T02:07:00.912Z,6.20
2017-12-23T02:09:28.408Z,6.20
2017-12-23T02:11:56.325Z,6.20
2017-12-23T02:14:24.245Z,6.20
2017-12-23T02:16:52.175Z,6.20
2017-12-23T02:19:19.670Z,6.20
2017-12-23T02:21:47.183Z,6.20
2017-12-23T02:24:14.688Z,6.20
2017-12-23T02:26:42.963Z,6.30
2017-12-23T02:29:10.856Z,6.20
2017-12-23T02:31:38.776Z,6.10
2017-12-23T02:34:06.729Z,6.10
2017-12-23T02:36:34.639Z,6.10
2017-12-23T02:39:02.157Z,6.10
2017-12-23T02:41:29.686Z,6.10
2017-12-23T02:43:57.966Z,6.10
2017-12-23T02:46:25.926Z,6.10
2017-12-23T02:48:53.567Z,6.20
2017-12-23T02:51:21.099Z,6.20
2017-12-23T02:53:48.608Z,6.10
2017-12-23T02:56:16.144Z,6.10
2017-12-23T02:58:44.048Z,6.10
2017-12-23T03:01:11.603Z,6.10
2017-12-23T03:08:37.349Z,6.10
2017-12-23T03:11:04.907Z,6.20
2017-12-23T03:13:32.411Z,6.10
2017-12-23T03:16:00.337Z,6.10
2017-12-23T03:18:28.268Z,6.10
2017-12-23T03:20:56.813Z,6.10
2017-12-23T03:23:24.456Z,6.10
2017-12-23T03:25:53.105Z,6.10
2017-12-23T03:28:20.597Z,6.10
2017-12-23T03:30:48.120Z,6.10
2017-12-23T03:33:15.614Z,6.10
2017-12-23T03:35:43.134Z,6.10
2017-12-23T03:38:10.631Z,6.10
2017-12-23T03:40:38.157Z,6.10
2017-12-23T03:43:05.683Z,6.10
2017-12-23T03:45:33.239Z,6.00
2017-12-23T03:48:01.139Z,6.00
2017-12-23T03:50:29.416Z,6.10
2017-12-23T03:52:56.947Z,6.10
2017-12-23T03:55:24.467Z,6.10
2017-12-23T03:57:51.992Z,6.10
2017-12-23T04:00:19.888Z,6.10
2017-12-23T04:02:47.419Z,6.00
2017-12-23T04:05:14.932Z,6.00
2017-12-23T04:07:42.472Z,6.00
2017-12-23T04:10:09.995Z,6.10
2017-12-23T04:12:37.922Z,6.00
2017-12-23T04:15:05.415Z,6.00
2017-12-23T04:17:33.330Z,6.10
2017-12-23T04:22:29.743Z,6.10
2017-12-23T04:24:57.677Z,6.10
2017-12-23T04:27:25.612Z,6.00
2017-12-23T04:29:53.133Z,6.00
2017-12-23T04:34:54.943Z,6.00
2017-12-23T04:37:22.467Z,6.00
2017-12-23T04:39:49.959Z,6.00
2017-12-23T04:42:17.894Z,6.00
2017-12-23T04:44:46.537Z,6.10
2017-12-23T04:47:14.502Z,6.10
2017-12-23T04:49:42.000Z,6.00
2017-12-23T04:52:09.529Z,6.00
2017-12-23T04:54:37.032Z,6.00
2017-12-23T04:57:04.629Z,6.00
2017-12-23T04:59:32.211Z,6.00
2017-12-23T05:02:00.109Z,6.00
2017-12-23T05:04:28.031Z,6.00
2017-12-23T05:06:57.099Z,6.00
2017-12-23T05:09:25.087Z,6.00
2017-12-23T05:11:52.596Z,6.00
2017-12-23T05:14:20.114Z,6.00
2017-12-23T05:16:47.643Z,6.00
2017-12-23T05:19:15.170Z,6.00
2017-12-23T05:21:43.076Z,6.10
2017-12-23T05:24:10.598Z,6.10
2017-12-23T05:26:38.095Z,6.10
2017-12-23T05:29:05.619Z,6.20
2017-12-23T05:31:33.123Z,6.10
2017-12-23T05:34:00.660Z,6.10
2017-12-23T05:36:28.190Z,6.10
2017-12-23T05:38:56.827Z,6.10
2017-12-23T05:41:24.439Z,6.00
2017-12-23T05:43:53.100Z,6.00
2017-12-23T05:46:21.023Z,6.00
2017-12-23T05:48:49.305Z,6.10
2017-12-23T05:51:17.582Z,6.10
2017-12-23T05:53:45.103Z,6.10
2017-12-23T05:56:12.638Z,6.00
2017-12-23T05:58:40.156Z,6.00
2017-12-23T06:01:08.121Z,6.00
2017-12-23T06:03:35.619Z,6.00
2017-12-23T06:06:03.146Z,6.00
2017-12-23T06:08:31.070Z,6.00
2017-12-23T06:10:58.642Z,5.90
2017-12-23T06:13:26.573Z,5.90
2017-12-23T06:15:54.082Z,5.90
2017-12-23T06:18:22.391Z,5.90
2017-12-23T06:20:49.908Z,6.00
2017-12-23T06:23:17.834Z,6.00
2017-12-23T06:25:45.326Z,6.00
2017-12-23T06:28:12.876Z,6.00
2017-12-23T06:30:41.564Z,6.10
2017-12-23T06:33:09.105Z,6.00
2017-12-23T06:35:36.999Z,6.10
2017-12-23T06:38:04.491Z,6.10
2017-12-23T06:40:32.019Z,6.00
2017-12-23T06:42:59.942Z,6.10
2017-12-23T06:45:27.479Z,6.10
2017-12-23T06:47:54.975Z,6.10
2017-12-23T06:50:22.909Z,6.00
2017-12-23T06:52:50.810Z,6.10
2017-12-23T06:55:18.338Z,6.00
2017-12-23T06:57:45.855Z,6.00
2017-12-23T07:00:14.142Z,6.00
2017-12-23T07:02:41.665Z,6.10
2017-12-23T07:05:09.192Z,6.10
2017-12-23T07:07:37.118Z,6.10
2017-12-23T07:10:04.647Z,6.10
2017-12-23T07:12:32.146Z,6.10
2017-12-23T07:14:59.707Z,6.10
2017-12-23T07:17:27.606Z,6.10
2017-12-23T07:19:55.130Z,6.10
2017-12-23T07:22:22.659Z,6.10
2017-12-23T07:24:50.182Z,6.10
2017-12-23T07:27:17.729Z,6.00
2017-12-23T07:29:45.222Z,6.10
2017-12-23T07:32:12.755Z,6.10
2017-12-23T07:34:40.654Z,6.10
2017-12-23T07:37:08.193Z,6.10
2017-12-23T07:39:35.694Z,6.10
2017-12-23T07:42:03.601Z,6.10
2017-12-23T07:44:31.105Z,6.30
2017-12-23T07:46:58.630Z,6.30
2017-12-23T07:49:26.123Z,6.30
2017-12-23T07:51:53.641Z,6.30
2017-12-23T07:54:21.130Z,6.40
2017-12-23T07:56:48.643Z,6.40
2017-12-23T07:59:16.539Z,6.40
2017-12-23T08:01:44.834Z,6.40
2017-12-23T08:04:12.340Z,6.40
2017-12-23T08:06:40.303Z,6.40
2017-12-23T08:09:07.792Z,6.40
2017-12-23T08:11:35.305Z,6.50
2017-12-23T08:14:02.849Z,6.50
2017-12-23T08:16:30.339Z,6.50
2017-12-23T08:18:57.870Z,6.40
2017-12-23T08:21:26.146Z,6.40
2017-12-23T08:23:53.672Z,6.50
2017-12-23T08:26:21.575Z,6.50
2017-12-23T08:28:49.131Z,6.50
2017-12-23T08:31:16.661Z,6.60
2017-12-23T08:33:44.587Z,6.60
2017-12-23T08:36:13.238Z,6.60
2017-12-23T08:38:41.151Z,6.70
2017-12-23T08:41:09.051Z,6.70
2017-12-23T08:43:36.963Z,6.80
2017-12-23T08:46:04.850Z,6.80
2017-12-23T08:48:33.158Z,6.80
2017-12-23T08:51:02.250Z,6.70
2017-12-23T08:53:30.150Z,6.80
2017-12-23T08:55:58.440Z,6.80
2017-12-23T08:58:25.950Z,6.80
2017-12-23T09:00:53.878Z,6.90
2017-12-23T09:03:21.407Z,6.90
2017-12-23T09:05:48.930Z,7.00
2017-12-23T09:08:16.856Z,7.00
2017-12-23T09:10:44.851Z,7.00
2017-12-23T09:13:12.351Z,7.10
2017-12-23T09:15:39.869Z,7.20
2017-12-23T09:18:07.768Z,7.30
2017-12-23T09:20:35.438Z,7.40
2017-12-23T09:23:03.335Z,7.50
2017-12-23T09:25:30.823Z,7.40
2017-12-23T09:27:58.358Z,7.50
2017-12-23T09:30:25.871Z,7.50
2017-12-23T09:32:53.798Z,7.50
2017-12-23T09:35:21.307Z,7.60
2017-12-23T09:37:49.230Z,7.50
2017-12-23T09:40:17.148Z,7.50
2017-12-23T09:42:44.665Z,7.50
2017-12-23T09:45:12.936Z,7.50
2017-12-23T09:47:40.469Z,7.50
2017-12-23T09:50:09.492Z,7.50
2017-12-23T09:52:37.027Z,7.50
2017-12-23T09:55:04.557Z,7.60
2017-12-23T09:57:32.079Z,7.60
2017-12-23T09:59:59.982Z,7.50
2017-12-23T10:02:28.763Z,7.50
2017-12-23T10:04:56.280Z,7.60
2017-12-23T10:07:24.184Z,7.50
2017-12-23T10:09:51.715Z,7.40
2017-12-23T10:12:19.211Z,7.40
2017-12-23T10:14:46.740Z,7.50
2017-12-23T10:17:14.642Z,7.50
2017-12-23T10:19:42.163Z,7.50
2017-12-23T10:22:09.688Z,7.50
2017-12-23T10:24:37.626Z,7.60
2017-12-23T10:27:05.531Z,7.60
2017-12-23T10:29:33.049Z,7.70
2017-12-23T10:32:01.311Z,7.80
2017-12-23T10:34:28.937Z,7.80
2017-12-23T10:36:56.470Z,7.80
2017-12-23T10:39:24.475Z,7.80
2017-12-23T10:41:52.030Z,7.90
2017-12-23T10:44:19.542Z,7.90
2017-12-23T10:46:47.060Z,7.90
2017-12-23T10:49:14.560Z,7.80
2017-12-23T10:51:42.546Z,7.90
2017-12-23T10:54:10.053Z,8.00
2017-12-23T10:56:37.659Z,8.10
2017-12-23T10:59:05.178Z,8.10
2017-12-23T11:01:33.463Z,8.10
2017-12-23T11:04:02.104Z,8.20
2017-12-23T11:06:29.623Z,8.30
2017-12-23T11:08:57.527Z,8.40
2017-12-23T11:11:25.199Z,8.60
2017-12-23T11:13:52.718Z,8.80
2017-12-23T11:16:20.247Z,9.10
2017-12-23T11:18:47.763Z,9.30
2017-12-23T11:21:15.674Z,9.40
2017-12-23T11:23:43.171Z,9.40
2017-12-23T11:26:11.105Z,9.30
2017-12-23T11:28:39.490Z,9.20
2017-12-23T11:31:07.005Z,8.90
2017-12-23T11:33:34.900Z,8.90
2017-12-23T11:36:02.423Z,8.90
2017-12-23T11:38:29.915Z,8.90
2017-12-23T11:43:26.317Z,9.00
2017-12-23T11:45:54.233Z,9.00
2017-12-23T11:48:21.739Z,8.90
2017-12-23T11:50:49.303Z,8.90
2017-12-23T11:53:16.811Z,9.00
2017-12-23T11:55:44.337Z,9.10
2017-12-23T11:58:11.858Z,9.00
2017-12-23T12:00:39.758Z,9.00
2017-12-23T12:03:07.679Z,8.90
2017-12-23T12:05:35.230Z,8.80
2017-12-23T12:08:02.746Z,8.70
2017-12-23T12:10:30.276Z,8.60
2017-12-23T12:12:58.934Z,8.60
2017-12-23T12:15:26.434Z,8.70
2017-12-23T12:20:22.831Z,8.60
2017-12-23T12:22:51.496Z,8.60
2017-12-23T12:25:19.001Z,8.60
2017-12-23T12:27:47.290Z,8.50
2017-12-23T12:30:14.790Z,8.60
2017-12-23T12:32:42.315Z,8.60
2017-12-23T12:35:09.830Z,8.50
2017-12-23T12:37:37.738Z,8.40
2017-12-23T12:40:05.262Z,8.30
2017-12-23T12:42:32.770Z,8.30
2017-12-23T12:45:00.285Z,8.20
2017-12-23T12:47:28.562Z,8.10
2017-12-23T12:49:57.230Z,8.00
2017-12-23T12:52:24.726Z,8.10
2017-12-23T12:54:53.758Z,8.00
2017-12-23T12:57:21.740Z,7.90
2017-12-23T12:59:49.294Z,7.90
2017-12-23T13:02:16.785Z,7.80
2017-12-23T13:04:44.713Z,7.60
2017-12-23T13:07:12.629Z,7.60
2017-12-23T13:09:40.142Z,7.50
2017-12-23T13:12:07.689Z,7.50
2017-12-23T13:14:35.199Z,7.40
2017-12-23T13:17:02.728Z,7.50
2017-12-23T13:19:30.235Z,7.50
2017-12-23T13:21:57.757Z,7.40
2017-12-23T13:26:54.119Z,7.40
2017-12-23T13:29:22.018Z,7.40
2017-12-23T13:31:49.543Z,7.40
2017-12-23T13:34:17.476Z,7.40
2017-12-23T13:36:46.119Z,7.30
2017-12-23T13:39:14.035Z,7.20
2017-12-23T13:41:41.949Z,7.10
2017-12-23T13:44:09.501Z,7.10
2017-12-23T13:46:37.063Z,7.10
2017-12-23T13:49:04.585Z,7.00
2017-12-23T13:51:32.534Z,7.10
2017-12-23T13:54:00.516Z,7.00
2017-12-23T13:56:28.019Z,7.00
2017-12-23T13:58:55.580Z,6.90
2017-12-23T14:01:23.086Z,6.90
2017-12-23T14:03:50.594Z,6.80
2017-12-23T14:06:18.554Z,6.80
2017-12-23T14:08:46.090Z,6.80
2017-12-23T14:11:14.403Z,6.70
2017-12-23T14:13:41.909Z,6.70
2017-12-23T14:16:09.447Z,6.60
2017-12-23T14:18:36.962Z,6.60
2017-12-23T14:21:04.506Z,6.60
2017-12-23T14:23:31.991Z,6.60
2017-12-23T14:25:59.910Z,6.50
2017-12-23T14:28:27.812Z,6.40
2017-12-23T14:30:55.732Z,6.40
2017-12-23T14:33:23.739Z,6.30
2017-12-23T14:35:51.295Z,6.30
2017-12-23T14:38:18.788Z,6.30
2017-12-23T14:40:46.290Z,6.30
2017-12-23T14:43:14.588Z,6.30
2017-12-23T14:45:42.144Z,6.30
2017-12-23T14:48:10.405Z,6.30
2017-12-23T14:53:06.818Z,6.30
2017-12-23T14:55:34.327Z,6.40
2017-12-23T14:58:02.241Z,6.40
2017-12-23T15:00:30.136Z,6.40
2017-12-23T15:02:58.057Z,6.50
2017-12-23T15:05:26.036Z,6.40
2017-12-23T15:07:53.593Z,6.40
2017-12-23T15:10:21.106Z,6.30
2017-12-23T15:12:48.999Z,6.30
2017-12-23T15:15:16.536Z,6.20
2017-12-23T15:17:44.048Z,6.10
2017-12-23T15:20:12.342Z,6.10
2017-12-23T15:22:40.260Z,5.90
2017-12-23T15:25:07.784Z,5.90
2017-12-23T15:27:35.296Z,5.80
2017-12-23T15:30:03.240Z,5.80
2017-12-23T15:32:30.741Z,5.70
2017-12-23T15:34:58.259Z,5.70
2017-12-23T15:37:25.791Z,5.70
2017-12-23T15:39:53.315Z,5.60
2017-12-23T15:42:21.586Z,5.60
2017-12-23T15:44:49.133Z,5.60
2017-12-23T15:47:16.650Z,5.60
2017-12-23T15:49:44.603Z,5.70
2017-12-23T15:52:12.131Z,5.80
2017-12-23T15:54:40.072Z,5.80
2017-12-23T15:57:08.048Z,5.90
2017-12-23T15:59:35.906Z,5.90
2017-12-23T16:02:03.402Z,5.90
2017-12-23T16:04:31.379Z,5.90
2017-12-23T16:06:59.273Z,5.90
2017-12-23T16:09:27.323Z,5.90
2017-12-23T16:11:54.835Z,5.90
2017-12-23T16:14:22.751Z,5.90
2017-12-23T16:16:50.243Z,5.80
2017-12-23T16:19:18.144Z,5.70
2017-12-23T16:21:46.098Z,5.70
2017-12-23T16:24:14.003Z,5.60
2017-12-23T16:26:41.918Z,5.50
2017-12-23T16:29:09.462Z,5.50
2017-12-23T16:31:38.256Z,5.40
2017-12-23T16:34:05.771Z,5.40
2017-12-23T16:36:33.679Z,5.30
2017-12-23T16:41:30.095Z,5.20
2017-12-23T16:43:57.713Z,5.20
2017-12-23T16:46:25.226Z,5.30
2017-12-23T16:48:53.165Z,5.20
2017-12-23T16:51:21.444Z,5.20
2017-12-23T16:53:49.012Z,5.20
2017-12-23T16:56:16.561Z,5.30
2017-12-23T16:58:44.861Z,5.40
2017-12-23T17:01:12.410Z,5.40
2017-12-23T17:03:40.377Z,5.40
2017-12-23T17:06:07.948Z,5.40
2017-12-23T17:08:35.447Z,5.40
2017-12-23T17:11:03.391Z,5.50
2017-12-23T17:13:31.344Z,5.50
2017-12-23T17:15:59.672Z,5.50
2017-12-23T17:18:27.277Z,5.60
2017-12-23T17:20:54.803Z,5.70
2017-12-23T17:23:22.727Z,5.70
2017-12-23T17:25:50.230Z,5.70
2017-12-23T17:28:17.804Z,5.80
2017-12-23T17:30:45.336Z,5.70
2017-12-23T17:33:12.885Z,5.70
2017-12-23T17:35:40.783Z,5.70
2017-12-23T17:38:08.315Z,5.70
2017-12-23T17:40:35.802Z,5.70
2017-12-23T17:43:03.844Z,5.60
2017-12-23T17:45:31.783Z,5.50
2017-12-23T17:48:00.097Z,5.50
2017-12-23T17:50:27.869Z,5.40
2017-12-23T17:52:56.135Z,5.40
2017-12-23T17:55:23.707Z,5.40
2017-12-23T17:57:51.251Z,5.30
2017-12-23T18:00:18.826Z,5.30
2017-12-23T18:02:46.379Z,5.30
2017-12-23T18:05:14.426Z,5.30
2017-12-23T18:07:41.931Z,5.30
2017-12-23T18:10:09.507Z,5.30
2017-12-23T18:12:37.030Z,5.30
2017-12-23T18:15:04.600Z,5.30
2017-12-23T18:17:32.192Z,5.30
2017-12-23T18:20:00.159Z,5.40
2017-12-23T18:22:27.712Z,5.40
2017-12-23T18:24:55.603Z,5.40
2017-12-23T18:27:23.364Z,5.40
2017-12-23T18:29:51.634Z,5.40
2017-12-23T18:32:19.270Z,5.40
2017-12-23T18:34:46.830Z,5.40
2017-12-23T18:37:14.339Z,5.40
2017-12-23T18:39:41.919Z,5.40
2017-12-23T18:42:09.878Z,5.40
2017-12-23T18:44:37.470Z,5.40
2017-12-23T18:47:05.376Z,5.40
2017-12-23T18:49:32.954Z,5.40
2017-12-23T18:52:00.514Z,5.40
2017-12-23T18:54:28.449Z,5.40
2017-12-23T18:56:56.097Z,5.40
2017-12-23T18:59:24.499Z,5.40
2017-12-23T19:01:52.438Z,5.50
2017-12-23T19:04:19.998Z,5.50
2017-12-23T19:06:47.970Z,5.60
2017-12-23T19:09:16.303Z,5.50
2017-12-23T19:11:44.278Z,5.50
2017-12-23T19:14:11.952Z,5.50
2017-12-23T19:16:52.695Z,5.50
2017-12-23T19:19:20.642Z,5.40
2017-12-23T19:21:48.606Z,5.40
2017-12-23T19:24:16.202Z,5.40
2017-12-23T19:26:43.701Z,5.40
2017-12-23T19:29:11.656Z,5.40
2017-12-23T19:31:39.213Z,5.40
2017-12-23T19:34:06.790Z,5.40
2017-12-23T19:36:35.527Z,5.40
2017-12-23T19:39:03.770Z,5.40
2017-12-23T19:41:31.726Z,5.50
2017-12-23T19:46:28.217Z,5.40
2017-12-23T19:48:56.201Z,5.50
2017-12-23T19:51:23.765Z,5.50
2017-12-23T19:53:51.349Z,5.50
2017-12-23T19:56:19.321Z,5.50
2017-12-23T19:58:47.257Z,5.60
2017-12-23T20:01:15.226Z,5.60
2017-12-23T20:03:42.789Z,5.60
2017-12-23T20:06:10.790Z,5.60
2017-12-23T20:08:38.366Z,5.60
2017-12-23T20:11:06.902Z,5.60
2017-12-23T20:13:35.283Z,5.60
2017-12-23T20:16:04.004Z,5.60
2017-12-23T20:18:31.574Z,5.60
2017-12-23T20:20:59.174Z,5.60
2017-12-23T20:23:26.746Z,5.60
2017-12-23T20:25:54.705Z,5.70
2017-12-23T20:28:22.687Z,5.70
2017-12-23T20:30:50.253Z,5.60
2017-12-23T20:33:17.867Z,5.60
2017-12-23T20:35:45.827Z,5.60
2017-12-23T20:38:13.418Z,5.60
2017-12-23T20:40:41.762Z,5.60
2017-12-23T20:43:09.372Z,5.50
2017-12-23T20:45:37.314Z,5.60
2017-12-23T20:48:04.995Z,5.50
2017-12-23T20:50:32.576Z,5.50
2017-12-23T20:53:01.706Z,5.50
2017-12-23T20:55:29.666Z,5.40
2017-12-23T20:57:57.611Z,5.40
2017-12-23T21:00:25.578Z,5.40
2017-12-23T21:02:53.549Z,5.40
2017-12-23T21:05:21.580Z,5.40
2017-12-23T21:07:49.142Z,5.30
2017-12-23T21:10:16.729Z,5.30
2017-12-23T21:12:44.300Z,5.30
2017-12-23T21:15:12.293Z,5.30
2017-12-23T21:17:39.858Z,5.30
2017-12-23T21:20:07.435Z,5.30
2017-12-23T21:22:35.042Z,5.20
2017-12-23T21:25:03.434Z,5.20
2017-12-23T21:29:59.938Z,5.30
2017-12-23T21:32:27.899Z,5.30
2017-12-23T21:34:55.455Z,5.30
2017-12-23T21:37:23.423Z,5.30
2017-12-23T21:39:51.373Z,5.30
2017-12-23T21:42:19.012Z,5.30
2017-12-23T21:44:46.666Z,5.40
2017-12-23T21:47:14.278Z,5.40
2017-12-23T21:49:41.843Z,5.30
2017-12-23T21:52:09.812Z,5.40
2017-12-23T21:54:37.806Z,5.40
2017-12-23T21:57:06.518Z,5.40
2017-12-23T21:59:34.675Z,5.40
2017-12-23T22:02:02.250Z,5.30
2017-12-23T22:04:30.218Z,5.30
2017-12-23T22:06:58.548Z,5.40
2017-12-23T22:09:26.874Z,5.50
2017-12-23T22:11:54.438Z,5.50
2017-12-23T22:14:21.962Z,5.40
2017-12-23T22:16:49.525Z,5.40
2017-12-23T22:19:18.015Z,5.40
2017-12-23T22:21:46.062Z,5.40
2017-12-23T22:24:13.624Z,5.40
2017-12-23T22:26:41.205Z,5.40
2017-12-23T22:29:09.118Z,5.40
2017-12-23T22:31:36.706Z,5.50
2017-12-23T22:34:04.660Z,5.50
2017-12-23T22:36:32.834Z,5.50
2017-12-23T22:39:01.162Z,5.50
2017-12-23T22:41:29.150Z,5.60
2017-12-23T22:43:57.120Z,5.60
2017-12-23T22:46:24.729Z,5.70
2017-12-23T22:48:52.305Z,5.60
2017-12-23T22:51:19.878Z,5.60
2017-12-23T22:53:48.206Z,5.60
2017-12-23T22:56:16.178Z,5.60
2017-12-23T22:58:44.527Z,5.50
2017-12-23T23:01:12.094Z,5.60
2017-12-23T23:03:39.704Z,5.50
2017-12-23T23:06:07.296Z,5.60
2017-12-23T23:08:34.829Z,5.60
2017-12-23T23:11:02.729Z,5.70
2017-12-23T23:13:31.421Z,5.60
2017-12-23T23:15:58.985Z,5.60
2017-12-23T23:18:26.571Z,5.60
2017-12-23T23:20:54.545Z,5.60
2017-12-23T23:23:22.122Z,5.60
2017-12-23T23:25:49.676Z,5.60
2017-12-23T23:28:17.632Z,5.60
2017-12-23T23:30:45.618Z,5.60
2017-12-23T23:33:13.151Z,5.60
2017-12-23T23:35:41.489Z,5.50
2017-12-23T23:38:09.051Z,5.50
2017-12-23T23:40:37.034Z,5.40
2017-12-23T23:43:04.930Z,5.40
2017-12-23T23:45:32.471Z,5.40
2017-12-23T23:48:00.047Z,5.40
2017-12-23T23:50:27.633Z,5.40
2017-12-23T23:52:55.539Z,5.40
2017-12-23T23:55:23.093Z,5.40
2017-12-23T23:57:51.001Z,5.40
